sensor_id;sensor_type;location;lat;lon;timestamp;pressure;altitude;pressure_sealevel;temperature;humidity
47166;BME280;32930;51.112;13.762;2023-02-11T00:48:50;100897.09;;;3.81;72.82
47166;BME280;32930;51.112;13.762;2023-02-11T01:38:41;100866.06;;;4.01;73.38
47166;BME280;32930;51.112;13.762;2023-02-11T01:54:12;100834.41;;;4.11;73.21
47166;BME280;32930;51.112;13.762;2023-02-11T02:58:13;100786.13;;;4.61;72.87
47166;BME280;32930;51.112;13.762;2023-02-11T03:12:15;100803.97;;;4.79;72.48
47166;BME280;32930;51.112;13.762;2023-02-11T03:14:43;100798.34;;;4.69;73.24
47166;BME280;32930;51.112;13.762;2023-02-11T03:17:09;100791.25;;;4.79;72.13
47166;BME280;32930;51.112;13.762;2023-02-11T03:19:43;100790.03;;;4.89;71.65
47166;BME280;32930;51.112;13.762;2023-02-11T03:22:37;100771.91;;;4.65;72.25
47166;BME280;32930;51.112;13.762;2023-02-11T03:25:03;100769.72;;;4.73;72.64
47166;BME280;32930;51.112;13.762;2023-02-11T03:30:20;100758.41;;;4.66;72.44
47166;BME280;32930;51.112;13.762;2023-02-11T04:14:00;100735.47;;;4.82;72.27
47166;BME280;32930;51.112;13.762;2023-02-11T04:16:26;100736.66;;;4.89;72.58
47166;BME280;32930;51.112;13.762;2023-02-11T04:24:03;100730.31;;;4.81;72.89
47166;BME280;32930;51.112;13.762;2023-02-11T04:26:28;100727.47;;;4.93;72.94
47166;BME280;32930;51.112;13.762;2023-02-11T04:28:56;100734.59;;;4.82;73.23
47166;BME280;32930;51.112;13.762;2023-02-11T04:31:22;100742.59;;;4.72;73.63
47166;BME280;32930;51.112;13.762;2023-02-11T04:33:47;100739.25;;;4.91;73.07
47166;BME280;32930;51.112;13.762;2023-02-11T04:36:13;100739.69;;;5.00;72.38
47166;BME280;32930;51.112;13.762;2023-02-11T04:50:33;100738.44;;;4.92;73.62
47166;BME280;32930;51.112;13.762;2023-02-11T04:52:59;100739.97;;;4.70;74.59
47166;BME280;32930;51.112;13.762;2023-02-11T05:00:35;100752.31;;;4.80;74.98
47166;BME280;32930;51.112;13.762;2023-02-11T05:03:00;100750.00;;;5.03;74.22
47166;BME280;32930;51.112;13.762;2023-02-11T05:05:26;100753.44;;;4.85;75.48
47166;BME280;32930;51.112;13.762;2023-02-11T05:07:52;100746.34;;;4.98;75.82
47166;BME280;32930;51.112;13.762;2023-02-11T05:10:17;100743.16;;;5.02;75.61
47166;BME280;32930;51.112;13.762;2023-02-11T05:12:43;100742.88;;;4.96;76.11
47166;BME280;32930;51.112;13.762;2023-02-11T05:15:08;100744.19;;;4.87;76.58
47166;BME280;32930;51.112;13.762;2023-02-11T05:17:34;100749.41;;;4.91;76.88
47166;BME280;32930;51.112;13.762;2023-02-11T05:20:00;100747.28;;;4.82;77.64
47166;BME280;32930;51.112;13.762;2023-02-11T05:22:25;100751.44;;;4.80;78.09
47166;BME280;32930;51.112;13.762;2023-02-11T05:24:51;100752.53;;;5.03;77.94
47166;BME280;32930;51.112;13.762;2023-02-11T05:27:19;100748.41;;;4.87;78.52
47166;BME280;32930;51.112;13.762;2023-02-11T05:29:44;100737.78;;;4.96;78.45
47166;BME280;32930;51.112;13.762;2023-02-11T05:32:10;100738.00;;;5.00;78.94
47166;BME280;32930;51.112;13.762;2023-02-11T05:34:36;100730.94;;;4.95;79.61
47166;BME280;32930;51.112;13.762;2023-02-11T05:37:02;100722.91;;;4.85;80.22
47166;BME280;32930;51.112;13.762;2023-02-11T05:39:27;100719.56;;;5.04;79.63
47166;BME280;32930;51.112;13.762;2023-02-11T05:41:53;100720.91;;;4.98;80.52
47166;BME280;32930;51.112;13.762;2023-02-11T05:44:19;100717.66;;;5.00;80.48
47166;BME280;32930;51.112;13.762;2023-02-11T05:46:44;100721.53;;;4.92;80.80
47166;BME280;32930;51.112;13.762;2023-02-11T05:49:10;100731.41;;;4.86;81.19
47166;BME280;32930;51.112;13.762;2023-02-11T05:51:36;100712.28;;;4.94;80.84
47166;BME280;32930;51.112;13.762;2023-02-11T05:54:01;100724.56;;;4.85;81.67
47166;BME280;32930;51.112;13.762;2023-02-11T05:56:27;100717.50;;;4.97;81.92
47166;BME280;32930;51.112;13.762;2023-02-11T05:58:57;100728.63;;;4.81;82.33
47166;BME280;32930;51.112;13.762;2023-02-11T06:01:24;100714.34;;;4.83;82.74
47166;BME280;32930;51.112;13.762;2023-02-11T06:03:50;100707.66;;;4.85;83.26
47166;BME280;32930;51.112;13.762;2023-02-11T06:06:16;100704.09;;;4.82;84.14
47166;BME280;32930;51.112;13.762;2023-02-11T06:08:42;100701.63;;;4.83;84.36
47166;BME280;32930;51.112;13.762;2023-02-11T06:11:08;100698.72;;;4.76;85.92
47166;BME280;32930;51.112;13.762;2023-02-11T06:13:35;100708.06;;;4.95;84.86
47166;BME280;32930;51.112;13.762;2023-02-11T06:21:49;100695.97;;;4.71;87.60
47166;BME280;32930;51.112;13.762;2023-02-11T06:24:15;100690.66;;;4.84;87.18
47166;BME280;32930;51.112;13.762;2023-02-11T06:32:35;100688.09;;;4.84;87.57
47166;BME280;32930;51.112;13.762;2023-02-11T06:35:01;100692.69;;;4.74;87.45
47166;BME280;32930;51.112;13.762;2023-02-11T06:37:26;100691.03;;;4.74;86.86
47166;BME280;32930;51.112;13.762;2023-02-11T06:39:52;100677.66;;;4.78;86.55
47166;BME280;32930;51.112;13.762;2023-02-11T06:50:26;100684.25;;;4.93;85.20
47166;BME280;32930;51.112;13.762;2023-02-11T06:52:52;100682.06;;;5.00;84.61
47166;BME280;32930;51.112;13.762;2023-02-11T06:55:17;100676.19;;;5.01;84.49
47166;BME280;32930;51.112;13.762;2023-02-11T06:57:43;100667.25;;;4.92;85.52
47166;BME280;32930;51.112;13.762;2023-02-11T07:00:10;100664.94;;;4.78;86.36
47166;BME280;32930;51.112;13.762;2023-02-11T07:02:36;100670.31;;;4.84;86.69
47166;BME280;32930;51.112;13.762;2023-02-11T07:05:01;100661.75;;;4.82;87.18
47166;BME280;32930;51.112;13.762;2023-02-11T07:07:27;100672.56;;;4.96;85.90
47166;BME280;32930;51.112;13.762;2023-02-11T07:09:53;100668.19;;;4.94;85.88
47166;BME280;32930;51.112;13.762;2023-02-11T07:12:19;100663.41;;;5.00;86.39
47166;BME280;32930;51.112;13.762;2023-02-11T07:14:44;100664.00;;;5.14;85.74
47166;BME280;32930;51.112;13.762;2023-02-11T07:17:10;100674.41;;;5.18;85.88
47166;BME280;32930;51.112;13.762;2023-02-11T07:19:35;100678.22;;;4.91;87.24
47166;BME280;32930;51.112;13.762;2023-02-11T07:22:01;100684.53;;;4.99;87.07
47166;BME280;32930;51.112;13.762;2023-02-11T07:24:26;100645.63;;;7.06;100.00
47166;BME280;32930;51.112;13.762;2023-02-11T07:26:52;100690.63;;;5.59;88.68
47166;BME280;32930;51.112;13.762;2023-02-11T07:29:18;100701.25;;;5.31;88.78
47166;BME280;32930;51.112;13.762;2023-02-11T07:31:44;100705.25;;;5.26;88.77
47166;BME280;32930;51.112;13.762;2023-02-11T07:34:09;100705.25;;;5.26;88.62
47166;BME280;32930;51.112;13.762;2023-02-11T07:36:35;100706.38;;;5.13;89.44
47166;BME280;32930;51.112;13.762;2023-02-11T07:39:01;100702.28;;;5.17;89.77
47166;BME280;32930;51.112;13.762;2023-02-11T07:41:27;100704.22;;;5.03;91.31
47166;BME280;32930;51.112;13.762;2023-02-11T07:43:52;100689.69;;;5.00;91.77
47166;BME280;32930;51.112;13.762;2023-02-11T07:46:25;100685.31;;;4.98;91.86
47166;BME280;32930;51.112;13.762;2023-02-11T07:48:51;100695.00;;;5.05;91.53
47166;BME280;32930;51.112;13.762;2023-02-11T07:51:21;100683.72;;;5.00;92.99
47166;BME280;32930;51.112;13.762;2023-02-11T07:53:47;100686.13;;;4.97;93.22
47166;BME280;32930;51.112;13.762;2023-02-11T07:58:54;100696.44;;;5.00;93.65
47166;BME280;32930;51.112;13.762;2023-02-11T08:01:28;100695.41;;;5.14;92.71
47166;BME280;32930;51.112;13.762;2023-02-11T08:04:01;100697.41;;;5.02;93.28
47166;BME280;32930;51.112;13.762;2023-02-11T08:06:52;100691.34;;;5.00;94.18
47166;BME280;32930;51.112;13.762;2023-02-11T08:09:27;100693.75;;;4.97;93.85
47166;BME280;32930;51.112;13.762;2023-02-11T08:12:08;100693.66;;;5.13;92.92
47166;BME280;32930;51.112;13.762;2023-02-11T08:14:43;100702.44;;;5.20;91.52
47166;BME280;32930;51.112;13.762;2023-02-11T08:17:09;100693.22;;;5.22;91.44
47166;BME280;32930;51.112;13.762;2023-02-11T08:22:04;100702.66;;;5.24;91.57
47166;BME280;32930;51.112;13.762;2023-02-11T08:24:31;100698.84;;;5.15;91.38
47166;BME280;32930;51.112;13.762;2023-02-11T08:27:26;100688.94;;;5.40;89.74
47166;BME280;32930;51.112;13.762;2023-02-11T08:29:52;100695.16;;;5.27;90.89
47166;BME280;32930;51.112;13.762;2023-02-11T08:32:34;100682.84;;;5.37;89.91
47166;BME280;32930;51.112;13.762;2023-02-11T08:34:59;100678.91;;;5.24;89.42
47166;BME280;32930;51.112;13.762;2023-02-11T08:37:25;100691.25;;;5.16;89.76
47166;BME280;32930;51.112;13.762;2023-02-11T08:40:06;100681.59;;;5.27;88.16
47166;BME280;32930;51.112;13.762;2023-02-11T08:42:35;100689.81;;;5.60;88.81
47166;BME280;32930;51.112;13.762;2023-02-11T08:45:00;100673.47;;;5.94;92.90
47166;BME280;32930;51.112;13.762;2023-02-11T08:47:26;100681.50;;;5.64;87.00
47166;BME280;32930;51.112;13.762;2023-02-11T08:55:47;100700.13;;;5.44;85.43
47166;BME280;32930;51.112;13.762;2023-02-11T08:58:13;100692.19;;;5.55;84.29
47166;BME280;32930;51.112;13.762;2023-02-11T09:05:49;100695.38;;;5.51;84.77
47166;BME280;32930;51.112;13.762;2023-02-11T09:08:44;100707.50;;;5.57;84.77
47166;BME280;32930;51.112;13.762;2023-02-11T09:11:34;100705.81;;;5.57;84.85
47166;BME280;32930;51.112;13.762;2023-02-11T09:14:01;100696.03;;;5.67;83.22
47166;BME280;32930;51.112;13.762;2023-02-11T09:16:29;100698.59;;;5.67;83.84
47166;BME280;32930;51.112;13.762;2023-02-11T09:18:57;100700.53;;;5.72;83.06
47166;BME280;32930;51.112;13.762;2023-02-11T09:21:23;100718.31;;;5.71;84.17
47166;BME280;32930;51.112;13.762;2023-02-11T09:23:51;100708.97;;;5.71;83.05
47166;BME280;32930;51.112;13.762;2023-02-11T09:26:27;100717.75;;;5.58;84.28
47166;BME280;32930;51.112;13.762;2023-02-11T09:31:30;100731.22;;;5.75;83.06
47166;BME280;32930;51.112;13.762;2023-02-11T09:34:09;100720.28;;;6.17;87.52
47166;BME280;32930;51.112;13.762;2023-02-11T09:36:41;100721.72;;;5.71;84.41
47166;BME280;32930;51.112;13.762;2023-02-11T09:39:22;100730.75;;;5.84;83.69
47166;BME280;32930;51.112;13.762;2023-02-11T09:45:30;100719.84;;;5.87;83.35
47166;BME280;32930;51.112;13.762;2023-02-11T09:48:21;100713.41;;;5.75;84.13
47166;BME280;32930;51.112;13.762;2023-02-11T09:51:01;100716.66;;;5.73;84.42
47166;BME280;32930;51.112;13.762;2023-02-11T09:54:03;100715.25;;;5.79;84.13
47166;BME280;32930;51.112;13.762;2023-02-11T09:57:00;100717.25;;;5.67;84.92
47166;BME280;32930;51.112;13.762;2023-02-11T09:59:29;100707.16;;;5.69;84.06
47166;BME280;32930;51.112;13.762;2023-02-11T10:07:44;100717.03;;;6.00;83.32
47166;BME280;32930;51.112;13.762;2023-02-11T10:16:17;100700.94;;;6.01;82.95
47166;BME280;32930;51.112;13.762;2023-02-11T10:22:22;100697.25;;;5.94;83.75
47166;BME280;32930;51.112;13.762;2023-02-11T10:28:12;100700.13;;;6.02;82.76
47166;BME280;32930;51.112;13.762;2023-02-11T10:30:43;100685.78;;;5.85;83.59
47166;BME280;32930;51.112;13.762;2023-02-11T10:36:02;100709.94;;;6.14;82.90
47166;BME280;32930;51.112;13.762;2023-02-11T10:55:18;100678.94;;;6.24;83.03
47166;BME280;32930;51.112;13.762;2023-02-11T10:57:59;100682.25;;;6.21;83.44
47166;BME280;32930;51.112;13.762;2023-02-11T11:03:01;100685.94;;;6.28;82.98
47166;BME280;32930;51.112;13.762;2023-02-11T11:11:32;100691.31;;;6.36;83.36
47166;BME280;32930;51.112;13.762;2023-02-11T11:14:12;100679.84;;;6.24;83.82
47166;BME280;32930;51.112;13.762;2023-02-11T11:16:59;100696.78;;;6.24;83.83
47166;BME280;32930;51.112;13.762;2023-02-11T11:19:24;100691.19;;;6.33;83.59
47166;BME280;32930;51.112;13.762;2023-02-11T11:22:12;100695.56;;;6.35;83.80
47166;BME280;32930;51.112;13.762;2023-02-11T11:24:45;100689.03;;;6.42;83.21
47166;BME280;32930;51.112;13.762;2023-02-11T11:27:37;100690.09;;;6.26;84.04
47166;BME280;32930;51.112;13.762;2023-02-11T11:30:16;100692.28;;;6.38;83.87
47166;BME280;32930;51.112;13.762;2023-02-11T11:32:42;100686.31;;;6.37;83.82
47166;BME280;32930;51.112;13.762;2023-02-11T11:35:23;100686.44;;;6.40;83.45
47166;BME280;32930;51.112;13.762;2023-02-11T11:37:57;100688.03;;;6.38;83.76
47166;BME280;32930;51.112;13.762;2023-02-11T12:06:23;100704.06;;;6.36;84.79
47166;BME280;32930;51.112;13.762;2023-02-11T12:20:04;100690.25;;;6.52;84.65
47166;BME280;32930;51.112;13.762;2023-02-11T12:39:14;100697.41;;;6.60;85.61
47166;BME280;32930;51.112;13.762;2023-02-11T12:55:39;100691.19;;;6.54;88.70
47166;BME280;32930;51.112;13.762;2023-02-11T13:01:05;100679.56;;;6.39;89.66
47166;BME280;32930;51.112;13.762;2023-02-11T13:06:21;100678.91;;;6.43;90.02
47166;BME280;32930;51.112;13.762;2023-02-11T13:09:00;100665.09;;;6.59;89.63
47166;BME280;32930;51.112;13.762;2023-02-11T13:33:02;100645.00;;;6.46;89.68
47166;BME280;32930;51.112;13.762;2023-02-11T13:40:35;100649.47;;;6.52;90.41
47166;BME280;32930;51.112;13.762;2023-02-11T13:43:10;100643.75;;;6.57;90.39
47166;BME280;32930;51.112;13.762;2023-02-11T13:45:46;100643.28;;;6.45;90.50
47166;BME280;32930;51.112;13.762;2023-02-11T13:48:27;100637.47;;;6.49;90.53
47166;BME280;32930;51.112;13.762;2023-02-11T13:53:45;100649.31;;;6.47;91.12
47166;BME280;32930;51.112;13.762;2023-02-11T13:58:52;100645.69;;;6.63;90.54
47166;BME280;32930;51.112;13.762;2023-02-11T14:01:37;100651.66;;;6.63;90.39
47166;BME280;32930;51.112;13.762;2023-02-11T14:04:24;100637.72;;;6.55;90.42
47166;BME280;32930;51.112;13.762;2023-02-11T14:07:32;100653.44;;;6.66;90.62
47166;BME280;32930;51.112;13.762;2023-02-11T14:13:32;100651.75;;;6.66;90.50
47166;BME280;32930;51.112;13.762;2023-02-11T14:16:21;100654.56;;;6.72;90.20
47166;BME280;32930;51.112;13.762;2023-02-11T14:21:31;100657.38;;;6.58;91.27
47166;BME280;32930;51.112;13.762;2023-02-11T14:32:50;100657.84;;;6.70;90.76
47166;BME280;32930;51.112;13.762;2023-02-11T14:47:00;100660.88;;;6.82;90.12
47166;BME280;32930;51.112;13.762;2023-02-11T14:49:44;100662.94;;;6.70;90.18
47166;BME280;32930;51.112;13.762;2023-02-11T14:52:40;100660.69;;;6.78;90.07
47166;BME280;32930;51.112;13.762;2023-02-11T14:57:41;100657.59;;;6.64;90.42
47166;BME280;32930;51.112;13.762;2023-02-11T17:32:46;100694.94;;;6.41;100.00
47166;BME280;32930;51.112;13.762;2023-02-11T17:37:39;100696.28;;;6.33;100.00
47166;BME280;32930;51.112;13.762;2023-02-11T17:40:06;100696.34;;;6.55;100.00
47166;BME280;32930;51.112;13.762;2023-02-11T17:42:32;100686.56;;;6.43;100.00
47166;BME280;32930;51.112;13.762;2023-02-11T17:44:57;100690.84;;;6.44;100.00
47166;BME280;32930;51.112;13.762;2023-02-11T17:47:23;100682.94;;;6.38;100.00
47166;BME280;32930;51.112;13.762;2023-02-11T17:49:49;100701.44;;;6.55;100.00
47166;BME280;32930;51.112;13.762;2023-02-11T17:52:14;100699.28;;;6.43;100.00
47166;BME280;32930;51.112;13.762;2023-02-11T17:54:41;100697.75;;;6.47;100.00
47166;BME280;32930;51.112;13.762;2023-02-11T17:57:07;100704.53;;;6.46;100.00
47166;BME280;32930;51.112;13.762;2023-02-11T17:59:32;100695.25;;;6.28;100.00
47166;BME280;32930;51.112;13.762;2023-02-11T18:02:03;100709.00;;;6.31;100.00
47166;BME280;32930;51.112;13.762;2023-02-11T18:04:29;100710.34;;;6.44;100.00
47166;BME280;32930;51.112;13.762;2023-02-11T18:06:55;100719.53;;;6.61;100.00
47166;BME280;32930;51.112;13.762;2023-02-11T18:09:22;100716.69;;;6.54;100.00
47166;BME280;32930;51.112;13.762;2023-02-11T18:11:48;100719.13;;;6.50;100.00
47166;BME280;32930;51.112;13.762;2023-02-11T18:14:15;100729.94;;;6.45;100.00
47166;BME280;32930;51.112;13.762;2023-02-11T18:16:40;100721.84;;;6.55;100.00
47166;BME280;32930;51.112;13.762;2023-02-11T18:19:09;100726.56;;;6.46;100.00
47166;BME280;32930;51.112;13.762;2023-02-11T18:21:35;100729.81;;;6.42;100.00
47166;BME280;32930;51.112;13.762;2023-02-11T18:24:02;100730.25;;;6.53;100.00
47166;BME280;32930;51.112;13.762;2023-02-11T18:26:28;100741.38;;;6.55;100.00
47166;BME280;32930;51.112;13.762;2023-02-11T18:28:56;100743.88;;;6.53;100.00
47166;BME280;32930;51.112;13.762;2023-02-11T18:31:23;100751.50;;;6.53;100.00
47166;BME280;32930;51.112;13.762;2023-02-11T18:33:49;100742.34;;;6.58;100.00
47166;BME280;32930;51.112;13.762;2023-02-11T18:36:15;100745.09;;;6.63;100.00
47166;BME280;32930;51.112;13.762;2023-02-11T18:38:41;100744.84;;;6.57;100.00
47166;BME280;32930;51.112;13.762;2023-02-11T18:41:11;100746.91;;;6.65;100.00
47166;BME280;32930;51.112;13.762;2023-02-11T18:43:38;100750.00;;;6.58;100.00
47166;BME280;32930;51.112;13.762;2023-02-11T18:46:11;100750.75;;;6.56;100.00
47166;BME280;32930;51.112;13.762;2023-02-11T18:48:37;100758.97;;;6.48;100.00
47166;BME280;32930;51.112;13.762;2023-02-11T18:51:15;100765.19;;;6.55;100.00
47166;BME280;32930;51.112;13.762;2023-02-11T18:53:42;100763.75;;;6.41;100.00
47166;BME280;32930;51.112;13.762;2023-02-11T18:56:10;100766.97;;;6.58;100.00
47166;BME280;32930;51.112;13.762;2023-02-11T18:58:37;100772.44;;;6.46;100.00
47166;BME280;32930;51.112;13.762;2023-02-11T19:01:26;100770.91;;;6.49;100.00
47166;BME280;32930;51.112;13.762;2023-02-11T19:03:54;100775.25;;;6.52;100.00
47166;BME280;32930;51.112;13.762;2023-02-11T19:06:26;100773.75;;;6.57;100.00
47166;BME280;32930;51.112;13.762;2023-02-11T19:08:54;100769.16;;;6.48;100.00
47166;BME280;32930;51.112;13.762;2023-02-11T19:11:20;100774.28;;;6.69;100.00
47166;BME280;32930;51.112;13.762;2023-02-11T19:14:05;100774.47;;;6.53;100.00
47166;BME280;32930;51.112;13.762;2023-02-11T19:16:35;100782.75;;;6.68;100.00
47166;BME280;32930;51.112;13.762;2023-02-11T19:19:02;100791.63;;;6.57;100.00
47166;BME280;32930;51.112;13.762;2023-02-11T19:21:28;100792.56;;;6.59;100.00
47166;BME280;32930;51.112;13.762;2023-02-11T19:23:53;100794.16;;;6.57;100.00
47166;BME280;32930;51.112;13.762;2023-02-11T19:26:26;100797.78;;;6.62;100.00
47166;BME280;32930;51.112;13.762;2023-02-11T19:28:52;100803.13;;;6.68;100.00
47166;BME280;32930;51.112;13.762;2023-02-11T19:31:18;100810.84;;;6.70;100.00
47166;BME280;32930;51.112;13.762;2023-02-11T19:33:43;100814.81;;;6.63;100.00
47166;BME280;32930;51.112;13.762;2023-02-11T19:36:09;100808.38;;;6.71;100.00
47166;BME280;32930;51.112;13.762;2023-02-11T19:38:41;100820.53;;;6.58;100.00
47166;BME280;32930;51.112;13.762;2023-02-11T19:41:14;100813.34;;;6.68;100.00
47166;BME280;32930;51.112;13.762;2023-02-11T19:43:43;100811.09;;;6.76;100.00
47166;BME280;32930;51.112;13.762;2023-02-11T19:46:08;100809.22;;;6.72;100.00
47166;BME280;32930;51.112;13.762;2023-02-11T19:48:34;100811.56;;;6.67;100.00
47166;BME280;32930;51.112;13.762;2023-02-11T19:51:07;100815.50;;;6.59;100.00
47166;BME280;32930;51.112;13.762;2023-02-11T19:53:33;100811.94;;;6.77;100.00
47166;BME280;32930;51.112;13.762;2023-02-11T19:56:02;100826.38;;;6.76;100.00
47166;BME280;32930;51.112;13.762;2023-02-11T19:58:30;100829.69;;;6.73;100.00
47166;BME280;32930;51.112;13.762;2023-02-11T20:01:05;100831.22;;;6.70;100.00
47166;BME280;32930;51.112;13.762;2023-02-11T20:03:31;100828.00;;;6.74;100.00
47166;BME280;32930;51.112;13.762;2023-02-11T20:05:57;100834.09;;;6.78;100.00
47166;BME280;32930;51.112;13.762;2023-02-11T20:08:22;100839.31;;;6.81;100.00
47166;BME280;32930;51.112;13.762;2023-02-11T20:10:48;100856.81;;;6.71;100.00
47166;BME280;32930;51.112;13.762;2023-02-11T20:13:13;100850.94;;;6.74;100.00
47166;BME280;32930;51.112;13.762;2023-02-11T20:15:39;100857.16;;;6.60;100.00
47166;BME280;32930;51.112;13.762;2023-02-11T20:18:05;100862.50;;;6.66;100.00
47166;BME280;32930;51.112;13.762;2023-02-11T20:20:30;100861.81;;;6.70;100.00
47166;BME280;32930;51.112;13.762;2023-02-11T20:22:56;100861.28;;;6.77;100.00
47166;BME280;32930;51.112;13.762;2023-02-11T20:25:23;100855.31;;;6.77;100.00
47166;BME280;32930;51.112;13.762;2023-02-11T20:27:48;100854.19;;;6.70;100.00
47166;BME280;32930;51.112;13.762;2023-02-11T20:30:14;100848.25;;;6.71;100.00
47166;BME280;32930;51.112;13.762;2023-02-11T20:32:40;100853.34;;;6.71;100.00
47166;BME280;32930;51.112;13.762;2023-02-11T20:35:06;100856.13;;;6.76;100.00
47166;BME280;32930;51.112;13.762;2023-02-11T20:37:33;100837.81;;;6.65;100.00
47166;BME280;32930;51.112;13.762;2023-02-11T20:39:58;100845.44;;;6.65;100.00
47166;BME280;32930;51.112;13.762;2023-02-11T20:42:25;100839.81;;;6.72;100.00
47166;BME280;32930;51.112;13.762;2023-02-11T20:44:50;100844.06;;;6.71;100.00
47166;BME280;32930;51.112;13.762;2023-02-11T21:53:10;100896.44;;;7.05;100.00
47166;BME280;32930;51.112;13.762;2023-02-11T21:55:37;100894.63;;;7.03;100.00
47166;BME280;32930;51.112;13.762;2023-02-11T21:58:03;100887.63;;;6.97;100.00
47166;BME280;32930;51.112;13.762;2023-02-11T22:00:29;100897.09;;;6.80;100.00
47166;BME280;32930;51.112;13.762;2023-02-11T22:02:55;100901.06;;;6.73;100.00
47166;BME280;32930;51.112;13.762;2023-02-11T22:07:56;100901.69;;;6.87;100.00
47166;BME280;32930;51.112;13.762;2023-02-11T22:10:22;100907.50;;;6.85;100.00
47166;BME280;32930;51.112;13.762;2023-02-11T22:12:50;100904.88;;;6.83;100.00
47166;BME280;32930;51.112;13.762;2023-02-11T22:15:15;100911.06;;;6.88;100.00
47166;BME280;32930;51.112;13.762;2023-02-11T23:34:40;100990.06;;;7.06;100.00
47166;BME280;32930;51.112;13.762;2023-02-11T23:37:06;100996.38;;;6.95;100.00
47166;BME280;32930;51.112;13.762;2023-02-11T23:39:31;100991.78;;;7.07;100.00
47166;BME280;32930;51.112;13.762;2023-02-11T23:41:57;100989.28;;;7.09;100.00
47166;BME280;32930;51.112;13.762;2023-02-11T23:44:25;100999.22;;;7.03;100.00
47166;BME280;32930;51.112;13.762;2023-02-11T23:46:50;100996.97;;;6.89;100.00
47166;BME280;32930;51.112;13.762;2023-02-11T23:49:16;100991.13;;;6.92;100.00
47166;BME280;32930;51.112;13.762;2023-02-11T23:51:41;100987.63;;;6.90;100.00
